Time;durP1;ratioP1;P1;durP2;ratioP2;P2;SDS_P1;SDS_P2;PMS_P1;PMS_P2;Temp;Humidity;BMP_temperature;BMP_pressure;BME280_temperature;BME280_humidity;BME280_pressure;Samples;Min_cycle;Max_cycle;Signal;HPM_P1;HPM_P2
2022/10/19 00:02:12;;;;;;;63.07;50.03;;;19.10;99.90;;;;;;5014258;28;20243;-96
2022/10/19 00:04:43;;;;;;;67.80;53.77;;;19.00;99.90;;;;;;5014899;28;20297;-96
2022/10/19 00:07:15;;;;;;;93.77;71.60;;;18.90;99.90;;;;;;5019082;28;20224;-96
2022/10/19 00:09:46;;;;;;;109.70;83.23;;;18.90;99.90;;;;;;5019099;28;20225;-96
2022/10/19 00:12:19;;;;;;;115.27;87.60;;;18.80;99.90;;;;;;5018095;28;20688;-96
2022/10/19 00:14:50;;;;;;;135.77;101.87;;;18.80;99.90;;;;;;5021111;28;20217;-96
2022/10/19 00:17:22;;;;;;;137.83;101.40;;;18.70;99.90;;;;;;5000751;28;20212;-95
2022/10/19 00:19:55;;;;;;;134.97;101.30;;;18.60;99.90;;;;;;5001426;28;20296;-96
2022/10/19 00:22:28;;;;;;;134.00;101.87;;;18.60;99.90;;;;;;5016618;28;20340;-94
2022/10/19 00:24:59;;;;;;;137.97;102.50;;;18.50;99.90;;;;;;5019477;28;20217;-96
2022/10/19 00:27:33;;;;;;;137.23;103.87;;;18.40;99.90;;;;;;5018876;28;20216;-96
2022/10/19 00:30:06;;;;;;;135.17;103.77;;;18.30;99.90;;;;;;5022210;28;20215;-96
2022/10/19 00:32:38;;;;;;;141.73;104.97;;;18.20;99.90;;;;;;5013570;28;20246;-96
2022/10/19 00:35:10;;;;;;;139.00;103.57;;;18.10;99.90;;;;;;4988196;28;20686;-96
2022/10/19 00:37:42;;;;;;;142.30;105.03;;;18.00;99.90;;;;;;5012256;28;20213;-96
2022/10/19 00:40:14;;;;;;;144.73;105.50;;;17.90;99.90;;;;;;5013757;28;20301;-96
2022/10/19 00:42:47;;;;;;;151.17;107.13;;;17.80;99.90;;;;;;5010469;28;20236;-95
2022/10/19 00:45:20;;;;;;;146.90;107.03;;;17.70;99.90;;;;;;5006798;28;20208;-95
2022/10/19 00:47:52;;;;;;;147.47;108.07;;;17.60;99.90;;;;;;5028573;28;20210;-96
2022/10/19 00:50:25;;;;;;;147.20;109.20;;;17.50;99.90;;;;;;5021970;28;20213;-94
2022/10/19 00:52:57;;;;;;;147.90;110.97;;;17.40;99.90;;;;;;5005767;28;20214;-95
2022/10/19 00:55:28;;;;;;;149.67;110.43;;;17.30;99.90;;;;;;4989851;28;20678;-95
2022/10/19 00:58:05;;;;;;;151.13;112.03;;;17.10;99.90;;;;;;5002338;28;20216;-95
2022/10/19 01:00:37;;;;;;;149.67;111.43;;;17.00;99.90;;;;;;4982049;28;20236;-95
2022/10/19 01:03:10;;;;;;;153.17;111.37;;;16.90;99.90;;;;;;5017966;28;20236;-96
2022/10/19 01:05:42;;;;;;;157.37;116.17;;;16.80;99.90;;;;;;5019146;28;20213;-95
2022/10/19 01:08:14;;;;;;;154.93;113.47;;;16.70;99.90;;;;;;5019209;28;20210;-95
2022/10/19 01:10:51;;;;;;;162.90;116.87;;;16.60;99.90;;;;;;5000952;28;20220;-95
2022/10/19 01:13:37;;;;;;;158.63;114.07;;;16.50;99.90;;;;;;5017309;28;20232;-96
2022/10/19 01:16:17;;;;;;;157.07;113.90;;;16.40;99.90;;;;;;5016869;28;20201;-96
2022/10/19 01:18:57;;;;;;;155.67;115.20;;;16.30;99.90;;;;;;5002618;28;20205;-96
2022/10/19 01:21:32;;;;;;;163.57;116.93;;;16.20;99.90;;;;;;5017174;28;20252;-93
2022/10/19 01:24:36;;;;;;;161.40;117.80;;;16.10;99.90;;;;;;5015345;28;20209;-92
2022/10/19 01:27:44;;;;;;;168.37;118.80;;;16.00;99.90;;;;;;5016261;28;20205;-92
2022/10/19 01:30:25;;;;;;;162.30;116.97;;;15.90;99.90;;;;;;5005191;28;20206;-92
2022/10/19 01:33:05;;;;;;;163.27;117.03;;;15.80;99.90;;;;;;4995986;28;20214;-92
2022/10/19 01:35:43;;;;;;;168.10;121.70;;;15.70;99.90;;;;;;5014478;28;20209;-92
2022/10/19 01:38:26;;;;;;;164.80;119.57;;;15.60;99.90;;;;;;5019751;28;20220;-92
2022/10/19 01:41:05;;;;;;;169.43;121.27;;;15.60;99.90;;;;;;5028289;28;20209;-91
2022/10/19 01:43:41;;;;;;;163.83;120.10;;;15.50;99.90;;;;;;5041385;28;20228;-90
2022/10/19 01:46:19;;;;;;;176.80;123.80;;;15.40;99.90;;;;;;5014884;28;20209;-91
2022/10/19 01:48:57;;;;;;;180.90;127.37;;;15.40;99.90;;;;;;5026325;28;20273;-91
2022/10/19 01:51:32;;;;;;;179.30;125.30;;;15.30;99.90;;;;;;5012813;28;20212;-93
2022/10/19 01:54:07;;;;;;;178.17;123.77;;;15.20;99.90;;;;;;5015530;28;20212;-93
2022/10/19 01:56:41;;;;;;;173.03;119.47;;;15.20;99.90;;;;;;5004478;28;20213;-92
2022/10/19 01:59:13;;;;;;;174.23;122.23;;;15.10;99.90;;;;;;5013784;28;20224;-92
2022/10/19 02:01:49;;;;;;;180.80;125.60;;;15.10;99.90;;;;;;5016514;28;20324;-92
2022/10/19 02:04:23;;;;;;;177.00;123.00;;;15.00;99.90;;;;;;5014892;28;20198;-92
2022/10/19 02:06:56;;;;;;;174.57;122.63;;;15.00;99.90;;;;;;5002660;28;20212;-93
2022/10/19 02:09:27;;;;;;;177.30;122.90;;;14.90;99.90;;;;;;5016805;28;20248;-93
2022/10/19 02:12:02;;;;;;;182.07;126.93;;;14.90;99.90;;;;;;5015134;28;20221;-93
2022/10/19 02:14:39;;;;;;;177.60;121.77;;;14.80;99.90;;;;;;5015472;28;20213;-93
2022/10/19 02:17:15;;;;;;;176.90;123.07;;;14.80;99.90;;;;;;5015469;28;20571;-94
2022/10/19 02:19:47;;;;;;;168.40;119.63;;;14.70;99.90;;;;;;5015432;28;20217;-93
2022/10/19 02:22:18;;;;;;;171.87;121.20;;;14.70;99.90;;;;;;5014227;28;20252;-92
2022/10/19 02:24:49;;;;;;;170.03;117.63;;;14.60;99.90;;;;;;5014982;28;20301;-92
2022/10/19 02:27:21;;;;;;;166.53;116.37;;;14.60;99.90;;;;;;4999712;28;20365;-93
2022/10/19 02:29:52;;;;;;;166.73;114.30;;;14.60;99.90;;;;;;5014381;28;20217;-93
2022/10/19 02:32:26;;;;;;;159.10;113.50;;;14.50;99.90;;;;;;5012761;28;20213;-94
2022/10/19 02:34:58;;;;;;;163.03;113.30;;;14.50;99.90;;;;;;5015604;28;20216;-92
2022/10/19 02:37:29;;;;;;;150.03;107.07;;;14.40;99.90;;;;;;5019448;28;20206;-93
2022/10/19 02:40:01;;;;;;;156.20;109.50;;;14.40;99.90;;;;;;5000162;28;20263;-91
2022/10/19 02:42:37;;;;;;;165.80;111.40;;;14.30;99.90;;;;;;5015410;28;20237;-94
2022/10/19 02:45:12;;;;;;;153.30;105.87;;;14.30;99.90;;;;;;5014436;28;20220;-93
2022/10/19 02:47:52;;;;;;;148.13;103.13;;;14.20;99.90;;;;;;5017398;28;20267;-93
2022/10/19 02:50:25;;;;;;;149.13;101.87;;;14.20;99.90;;;;;;5015226;28;20209;-93
2022/10/19 02:53:01;;;;;;;144.60;99.27;;;14.10;99.90;;;;;;4998017;28;20272;-93
2022/10/19 02:55:32;;;;;;;142.87;97.43;;;14.10;99.90;;;;;;5016312;28;20301;-93
2022/10/19 02:58:06;;;;;;;138.53;97.67;;;14.00;99.90;;;;;;5011997;28;20229;-93
2022/10/19 03:00:37;;;;;;;144.70;99.33;;;14.00;99.90;;;;;;5013328;28;20224;-93
2022/10/19 03:03:14;;;;;;;141.90;97.77;;;13.90;99.90;;;;;;5016637;28;20607;-93
2022/10/19 03:05:45;;;;;;;143.80;98.50;;;13.90;99.90;;;;;;5009620;28;20210;-92
2022/10/19 03:08:16;;;;;;;149.40;97.03;;;13.80;99.90;;;;;;5008081;28;20209;-93
2022/10/19 03:10:48;;;;;;;144.07;99.97;;;13.80;99.90;;;;;;5014589;28;20214;-92
2022/10/19 03:13:19;;;;;;;146.07;100.33;;;13.70;99.90;;;;;;5012978;28;20225;-92
2022/10/19 03:15:50;;;;;;;148.23;102.30;;;13.70;99.90;;;;;;5014618;28;20284;-92
2022/10/19 03:18:26;;;;;;;147.87;101.60;;;13.70;99.90;;;;;;5015037;28;20214;-92
2022/10/19 03:21:04;;;;;;;146.53;101.77;;;13.60;99.90;;;;;;5013783;28;20223;-93
2022/10/19 03:23:36;;;;;;;146.40;99.50;;;13.60;99.90;;;;;;5017154;28;20316;-92
2022/10/19 03:26:08;;;;;;;146.27;99.17;;;13.60;99.90;;;;;;5014469;28;20293;-92
2022/10/19 03:28:41;;;;;;;139.67;96.93;;;13.60;99.90;;;;;;5014577;28;20268;-92
2022/10/19 03:31:13;;;;;;;141.87;96.60;;;13.60;99.90;;;;;;5014252;28;20208;-92
2022/10/19 03:33:45;;;;;;;135.13;92.57;;;13.60;99.90;;;;;;5013957;28;20213;-92
2022/10/19 03:36:21;;;;;;;132.20;90.43;;;13.60;99.90;;;;;;5002191;28;20373;-92
2022/10/19 03:38:57;;;;;;;129.40;89.37;;;13.60;99.90;;;;;;5016921;28;20702;-92
2022/10/19 03:41:29;;;;;;;132.20;87.77;;;13.50;99.90;;;;;;5004464;28;20222;-91
2022/10/19 03:44:01;;;;;;;121.30;84.73;;;13.50;99.90;;;;;;4980788;28;20234;-93
2022/10/19 03:46:32;;;;;;;124.37;84.90;;;13.50;99.90;;;;;;5011881;28;20281;-91
2022/10/19 03:49:06;;;;;;;121.37;83.10;;;13.50;99.90;;;;;;5017289;28;20288;-93
2022/10/19 03:51:38;;;;;;;117.80;83.67;;;13.40;99.90;;;;;;5000825;28;20206;-93
2022/10/19 03:54:13;;;;;;;115.73;79.00;;;13.40;99.90;;;;;;5017849;28;20210;-93
2022/10/19 03:56:45;;;;;;;113.80;78.00;;;13.30;99.90;;;;;;5020881;28;20209;-93
2022/10/19 03:59:16;;;;;;;114.33;77.97;;;13.30;99.90;;;;;;5017741;28;20208;-93
2022/10/19 04:01:48;;;;;;;114.43;75.93;;;13.30;99.90;;;;;;5011676;28;20217;-93
2022/10/19 04:04:21;;;;;;;112.67;76.50;;;13.30;99.90;;;;;;5003627;28;20229;-93
2022/10/19 04:06:55;;;;;;;106.47;74.87;;;13.20;99.90;;;;;;5014343;28;20297;-91
2022/10/19 04:09:26;;;;;;;108.37;76.20;;;13.20;99.90;;;;;;5018786;28;20228;-93
2022/10/19 04:11:58;;;;;;;110.40;75.07;;;13.10;99.90;;;;;;5019372;28;20213;-92
2022/10/19 04:14:29;;;;;;;107.73;73.83;;;13.10;99.90;;;;;;4984799;28;20202;-93
2022/10/19 04:17:14;;;;;;;116.03;76.20;;;13.00;99.90;;;;;;5002671;28;20214;-91
2022/10/19 04:19:47;;;;;;;111.70;76.43;;;13.00;99.90;;;;;;5018864;28;20201;-93
2022/10/19 04:22:18;;;;;;;110.27;74.53;;;13.00;99.90;;;;;;5030163;28;20202;-92
2022/10/19 04:24:49;;;;;;;117.77;77.90;;;13.00;99.90;;;;;;5025305;28;20247;-93
2022/10/19 04:27:21;;;;;;;112.10;75.27;;;12.90;99.90;;;;;;5002218;28;20265;-93
2022/10/19 04:29:53;;;;;;;110.80;77.87;;;12.90;99.90;;;;;;5020481;28;20293;-92
2022/10/19 04:32:24;;;;;;;110.07;75.33;;;12.80;99.90;;;;;;5001580;28;20212;-91
2022/10/19 04:34:57;;;;;;;117.50;78.83;;;12.80;99.90;;;;;;5017795;28;20210;-91
2022/10/19 04:37:28;;;;;;;111.20;76.47;;;12.80;99.90;;;;;;5017301;28;20211;-91
2022/10/19 04:40:00;;;;;;;114.53;77.97;;;12.80;99.90;;;;;;5017413;28;20241;-92
2022/10/19 04:42:31;;;;;;;116.30;77.10;;;12.70;99.90;;;;;;5016632;28;20214;-91
2022/10/19 04:45:02;;;;;;;119.87;80.07;;;12.70;99.90;;;;;;5017155;28;20240;-92
2022/10/19 04:47:33;;;;;;;110.90;76.30;;;12.60;99.90;;;;;;5017188;28;20206;-92
2022/10/19 04:50:07;;;;;;;112.53;77.23;;;12.60;99.90;;;;;;5017509;28;20205;-92
2022/10/19 04:52:39;;;;;;;113.60;78.33;;;12.50;99.90;;;;;;5005144;28;20210;-93
2022/10/19 04:55:12;;;;;;;118.17;80.23;;;12.50;99.90;;;;;;5016890;28;20670;-93
2022/10/19 04:57:43;;;;;;;113.33;78.47;;;12.40;99.90;;;;;;5005322;28;20209;-93
2022/10/19 05:00:15;;;;;;;116.03;76.10;;;12.40;99.90;;;;;;5025452;28;20673;-93
2022/10/19 05:02:47;;;;;;;112.87;78.70;;;12.40;99.90;;;;;;5016301;28;20213;-93
2022/10/19 05:05:20;;;;;;;113.90;76.57;;;12.30;99.90;;;;;;5018259;28;20214;-94
2022/10/19 05:07:52;;;;;;;111.20;77.13;;;12.30;99.90;;;;;;5018165;28;20209;-93
2022/10/19 05:10:23;;;;;;;112.20;78.30;;;12.30;99.90;;;;;;5021029;28;20213;-93
2022/10/19 05:12:54;;;;;;;115.93;79.23;;;12.20;99.90;;;;;;5016711;28;20225;-93
2022/10/19 05:15:27;;;;;;;119.20;79.47;;;12.20;99.90;;;;;;5017027;28;20292;-93
2022/10/19 05:17:59;;;;;;;114.90;77.83;;;12.20;99.90;;;;;;5018045;28;20280;-94
2022/10/19 05:20:32;;;;;;;109.73;75.67;;;12.20;99.90;;;;;;5010675;28;20209;-93
2022/10/19 05:23:03;;;;;;;119.30;76.87;;;12.20;99.90;;;;;;5021746;28;20198;-93
2022/10/19 05:25:36;;;;;;;109.57;76.57;;;12.10;99.90;;;;;;5026131;28;20221;-94
2022/10/19 05:28:07;;;;;;;114.17;78.43;;;12.10;99.90;;;;;;5037186;28;20205;-93
2022/10/19 05:30:39;;;;;;;116.37;78.00;;;12.10;99.90;;;;;;4999907;28;20201;-94
2022/10/19 05:33:17;;;;;;;111.93;77.13;;;12.10;99.90;;;;;;4999682;28;20217;-93
2022/10/19 05:35:50;;;;;;;113.10;76.70;;;12.10;99.90;;;;;;5016545;28;20206;-93
2022/10/19 05:38:21;;;;;;;116.23;77.93;;;12.00;99.90;;;;;;5016848;28;20665;-92
2022/10/19 05:40:53;;;;;;;115.43;78.43;;;11.90;99.90;;;;;;5015896;28;20221;-93
2022/10/19 05:43:24;;;;;;;116.90;79.53;;;11.90;99.90;;;;;;5002220;28;20295;-92
2022/10/19 05:45:55;;;;;;;119.13;81.70;;;11.80;99.90;;;;;;5012329;28;20205;-93
2022/10/19 05:48:31;;;;;;;109.30;76.73;;;11.80;99.90;;;;;;5009678;28;20221;-93
2022/10/19 05:51:06;;;;;;;121.93;81.43;;;11.80;99.90;;;;;;4996094;28;20216;-93
2022/10/19 05:53:38;;;;;;;123.43;82.43;;;11.70;99.90;;;;;;4991180;28;20221;-93
2022/10/19 05:56:15;;;;;;;121.73;82.77;;;11.70;99.90;;;;;;5001222;28;20220;-92
2022/10/19 05:58:47;;;;;;;125.77;84.97;;;11.70;99.90;;;;;;5013835;28;20221;-93
2022/10/19 06:01:19;;;;;;;130.60;87.70;;;11.60;99.90;;;;;;5004915;28;20194;-92
2022/10/19 06:03:54;;;;;;;133.37;88.17;;;11.60;99.90;;;;;;5004731;28;20253;-93
2022/10/19 06:06:28;;;;;;;126.47;86.23;;;11.60;99.90;;;;;;5014292;28;20209;-93
2022/10/19 06:09:00;;;;;;;130.43;88.37;;;11.60;99.90;;;;;;5025353;28;20209;-93
2022/10/19 06:11:33;;;;;;;137.20;92.13;;;11.50;99.90;;;;;;5033893;28;20208;-94
2022/10/19 06:14:07;;;;;;;132.20;92.57;;;11.40;99.90;;;;;;5021917;28;20263;-94
2022/10/19 06:16:40;;;;;;;143.87;94.23;;;11.40;99.90;;;;;;5005666;28;20219;-93
2022/10/19 06:19:11;;;;;;;140.20;94.47;;;11.40;99.90;;;;;;5018935;28;20205;-93
2022/10/19 06:21:46;;;;;;;138.63;95.50;;;11.40;99.90;;;;;;5017344;28;20206;-93
2022/10/19 06:24:17;;;;;;;139.40;94.87;;;11.40;99.90;;;;;;5015924;28;20233;-94
2022/10/19 06:26:48;;;;;;;141.83;95.43;;;11.50;99.90;;;;;;5016036;28;20732;-93
2022/10/19 06:29:19;;;;;;;139.30;96.30;;;11.50;99.90;;;;;;5004812;28;20215;-95
2022/10/19 06:31:50;;;;;;;150.03;101.90;;;11.40;99.90;;;;;;4996344;28;20218;-94
2022/10/19 06:34:22;;;;;;;149.27;102.33;;;11.30;99.90;;;;;;5008035;28;20577;-94
2022/10/19 06:36:55;;;;;;;159.07;104.93;;;11.30;99.90;;;;;;5001148;28;20596;-94
2022/10/19 06:39:26;;;;;;;151.77;104.70;;;11.30;99.90;;;;;;5014947;28;20232;-93
2022/10/19 06:41:57;;;;;;;163.43;107.63;;;11.40;99.90;;;;;;5011625;28;20209;-94
2022/10/19 06:44:29;;;;;;;152.13;104.13;;;11.40;99.90;;;;;;5009545;28;20241;-93
2022/10/19 06:47:01;;;;;;;152.63;103.63;;;11.40;99.90;;;;;;5015256;28;20666;-94
2022/10/19 06:49:34;;;;;;;156.67;105.97;;;11.40;99.90;;;;;;5015250;28;20213;-94
2022/10/19 06:52:08;;;;;;;152.13;104.10;;;11.30;99.90;;;;;;5015498;28;20232;-94
2022/10/19 06:54:39;;;;;;;155.03;105.60;;;11.30;99.90;;;;;;4998187;28;20213;-94
2022/10/19 06:57:10;;;;;;;153.83;104.67;;;11.30;99.90;;;;;;4983033;28;20229;-92
2022/10/19 06:59:41;;;;;;;153.33;106.27;;;11.30;99.90;;;;;;5005956;28;20212;-93
2022/10/19 07:02:14;;;;;;;149.53;104.47;;;11.30;99.90;;;;;;5016672;28;20666;-93
2022/10/19 07:04:46;;;;;;;151.10;104.07;;;11.30;99.90;;;;;;5016856;28;20229;-93
2022/10/19 07:07:19;;;;;;;151.10;103.73;;;11.20;99.90;;;;;;4997770;28;20213;-93
2022/10/19 07:09:52;;;;;;;154.17;104.27;;;11.20;99.90;;;;;;5014732;28;20260;-93
2022/10/19 07:12:23;;;;;;;148.97;102.33;;;11.20;99.90;;;;;;5014426;28;20210;-93
2022/10/19 07:14:54;;;;;;;145.70;98.67;;;11.20;99.90;;;;;;5014886;28;20639;-94
2022/10/19 07:17:25;;;;;;;142.47;98.13;;;11.20;99.90;;;;;;4996519;28;20678;-94
2022/10/19 07:19:57;;;;;;;142.87;96.13;;;11.20;99.90;;;;;;5014027;28;20659;-93
2022/10/19 07:22:31;;;;;;;139.83;94.27;;;11.20;99.90;;;;;;5014624;28;20198;-93
2022/10/19 07:25:03;;;;;;;133.60;89.60;;;11.20;99.90;;;;;;5014322;28;20233;-94
2022/10/19 07:27:38;;;;;;;133.77;92.33;;;11.20;99.90;;;;;;4999492;28;20212;-93
2022/10/19 07:30:10;;;;;;;135.40;92.07;;;11.20;99.90;;;;;;5014840;28;20205;-94
2022/10/19 07:32:42;;;;;;;140.57;92.03;;;11.20;99.90;;;;;;4998996;28;20208;-94
2022/10/19 07:35:16;;;;;;;128.23;87.13;;;11.10;99.90;;;;;;5017655;28;20257;-94
2022/10/19 07:37:49;;;;;;;129.80;86.57;;;11.10;99.90;;;;;;5016527;28;20700;-94
2022/10/19 07:40:20;;;;;;;128.30;84.80;;;11.00;99.90;;;;;;4996270;28;20224;-94
2022/10/19 07:42:52;;;;;;;122.67;83.37;;;11.00;99.90;;;;;;5014251;28;20219;-94
2022/10/19 07:45:26;;;;;;;122.17;83.60;;;11.00;99.90;;;;;;5020374;28;20279;-92
2022/10/19 07:47:57;;;;;;;121.70;80.53;;;10.90;99.90;;;;;;5020825;28;20220;-94
2022/10/19 07:50:28;;;;;;;122.83;82.77;;;10.90;99.90;;;;;;5015385;28;20214;-92
2022/10/19 07:53:04;;;;;;;123.83;81.13;;;10.90;99.90;;;;;;5014038;28;20213;-92
2022/10/19 07:55:36;;;;;;;117.57;80.50;;;10.80;99.90;;;;;;4997019;28;20209;-93
2022/10/19 07:58:07;;;;;;;112.73;79.10;;;10.80;99.90;;;;;;4995092;28;20211;-94
2022/10/19 08:00:38;;;;;;;116.90;78.73;;;10.70;99.90;;;;;;5004882;28;20213;-94
2022/10/19 08:03:09;;;;;;;117.43;78.93;;;10.70;99.90;;;;;;5009027;28;20224;-94
2022/10/19 08:06:03;;;;;;;118.73;79.17;;;10.70;99.90;;;;;;5012475;28;20237;-94
2022/10/19 08:08:37;;;;;;;118.63;80.40;;;10.70;99.90;;;;;;4995411;28;20209;-94
2022/10/19 08:11:09;;;;;;;116.97;80.73;;;10.70;99.90;;;;;;4994678;28;20210;-93
2022/10/19 08:13:40;;;;;;;120.47;83.63;;;10.70;99.90;;;;;;5007232;28;20214;-94
2022/10/19 08:16:24;;;;;;;121.47;82.83;;;10.70;99.90;;;;;;5008556;28;20633;-94
2022/10/19 08:18:59;;;;;;;126.27;83.23;;;10.70;99.90;;;;;;4980007;28;20214;-94
2022/10/19 08:21:31;;;;;;;130.60;84.30;;;10.70;99.90;;;;;;4994572;28;20297;-95
2022/10/19 08:24:05;;;;;;;119.37;83.40;;;10.70;99.90;;;;;;5008342;28;20373;-93
2022/10/19 08:26:39;;;;;;;120.53;84.13;;;10.70;99.90;;;;;;4996234;28;20265;-93
2022/10/19 08:29:14;;;;;;;122.30;86.30;;;10.60;99.90;;;;;;5003711;28;20220;-93
2022/10/19 08:31:46;;;;;;;126.23;85.93;;;10.60;99.90;;;;;;5003870;28;20231;-92
2022/10/19 08:34:17;;;;;;;123.73;85.10;;;10.50;99.90;;;;;;5015395;28;20663;-94
2022/10/19 08:36:48;;;;;;;123.83;84.00;;;10.50;99.90;;;;;;5017790;28;20206;-94
2022/10/19 08:39:21;;;;;;;126.63;83.43;;;10.50;99.90;;;;;;5000927;28;20228;-95
2022/10/19 08:42:01;;;;;;;119.67;79.27;;;10.50;99.90;;;;;;5017057;28;20220;-94
2022/10/19 08:44:51;;;;;;;117.70;80.00;;;10.50;99.90;;;;;;5016060;28;20212;-94
2022/10/19 08:47:38;;;;;;;115.63;80.43;;;10.50;99.90;;;;;;5014066;28;20240;-94
2022/10/19 08:50:19;;;;;;;118.67;79.90;;;10.60;99.90;;;;;;5017237;28;20233;-93
2022/10/19 08:52:55;;;;;;;119.10;81.03;;;10.60;99.90;;;;;;5001413;28;20217;-93
2022/10/19 08:55:41;;;;;;;115.73;79.47;;;10.60;99.90;;;;;;5017137;28;20213;-94
2022/10/19 08:58:32;;;;;;;110.53;77.53;;;10.60;99.90;;;;;;4999632;28;20220;-92
2022/10/19 09:01:11;;;;;;;127.60;83.50;;;10.60;99.90;;;;;;4999761;28;20216;-93
2022/10/19 09:03:49;;;;;;;122.67;84.37;;;10.50;99.90;;;;;;5016494;28;20221;-93
2022/10/19 09:06:29;;;;;;;124.60;84.73;;;10.50;99.90;;;;;;4992958;28;20269;-93
2022/10/19 09:09:04;;;;;;;123.50;85.13;;;10.50;99.90;;;;;;5015893;28;20217;-93
2022/10/19 09:11:44;;;;;;;128.90;86.87;;;10.50;99.90;;;;;;5000973;28;20220;-93
2022/10/19 09:14:20;;;;;;;133.80;88.50;;;10.60;99.90;;;;;;5002955;28;20227;-94
2022/10/19 09:16:52;;;;;;;130.93;91.60;;;10.60;99.90;;;;;;5020053;28;20206;-92
2022/10/19 09:19:28;;;;;;;135.93;91.97;;;10.50;99.90;;;;;;5017909;28;20209;-94
2022/10/19 09:22:03;;;;;;;142.20;93.33;;;10.50;99.90;;;;;;5028774;28;20209;-94
2022/10/19 09:24:41;;;;;;;137.57;91.53;;;10.50;99.90;;;;;;5004847;28;20219;-94
2022/10/19 09:27:21;;;;;;;133.20;92.60;;;10.60;99.90;;;;;;5003776;28;20237;-94
2022/10/19 09:29:57;;;;;;;144.70;96.27;;;10.50;99.90;;;;;;5013473;28;20214;-93
2022/10/19 09:32:32;;;;;;;139.40;94.50;;;10.60;99.90;;;;;;4998224;28;20225;-93
2022/10/19 09:35:08;;;;;;;138.10;96.00;;;10.50;99.90;;;;;;4980313;28;20206;-93
2022/10/19 09:37:46;;;;;;;140.30;98.57;;;10.50;99.90;;;;;;5001452;28;20684;-94
2022/10/19 09:40:22;;;;;;;141.40;96.07;;;10.50;99.90;;;;;;5003562;28;20216;-92
2022/10/19 09:43:01;;;;;;;144.20;98.23;;;10.50;99.90;;;;;;5018154;28;20216;-92
2022/10/19 09:45:39;;;;;;;144.43;97.63;;;10.50;99.90;;;;;;5006750;28;20202;-93
2022/10/19 09:48:22;;;;;;;145.17;99.13;;;10.50;99.90;;;;;;5002225;28;20224;-94
2022/10/19 09:50:58;;;;;;;147.50;99.27;;;10.50;99.90;;;;;;5016740;28;20220;-94
2022/10/19 09:53:30;;;;;;;148.07;101.90;;;10.40;99.90;;;;;;5016248;28;20205;-93
2022/10/19 09:56:05;;;;;;;151.50;103.73;;;10.40;99.90;;;;;;4999297;28;20220;-93
2022/10/19 09:58:47;;;;;;;152.67;105.47;;;10.40;99.90;;;;;;5011244;28;20207;-94
2022/10/19 10:01:40;;;;;;;152.83;104.53;;;10.40;99.90;;;;;;5012025;28;20206;-94
2022/10/19 10:04:17;;;;;;;148.07;103.37;;;10.30;99.90;;;;;;5013159;28;20233;-93
2022/10/19 10:06:49;;;;;;;161.57;107.00;;;10.30;99.90;;;;;;5024447;28;20229;-92
2022/10/19 10:09:24;;;;;;;154.63;105.87;;;10.40;99.90;;;;;;5007635;28;20221;-94
2022/10/19 10:11:59;;;;;;;156.17;106.40;;;10.30;99.90;;;;;;4995474;28;20313;-94
2022/10/19 10:14:38;;;;;;;165.07;108.80;;;10.30;99.90;;;;;;4986779;28;20201;-93
2022/10/19 10:17:17;;;;;;;149.43;103.27;;;10.30;99.90;;;;;;5015432;28;20295;-93
2022/10/19 10:20:19;;;;;;;158.33;103.97;;;10.30;99.90;;;;;;5015276;28;20205;-94
2022/10/19 10:22:58;;;;;;;149.87;100.67;;;10.30;99.90;;;;;;5005303;28;20224;-93
2022/10/19 10:25:32;;;;;;;150.37;101.70;;;10.30;99.90;;;;;;5008802;28;20633;-93
2022/10/19 10:28:05;;;;;;;147.73;101.73;;;10.30;99.90;;;;;;5035647;28;20233;-94
2022/10/19 10:30:39;;;;;;;149.83;103.30;;;10.30;99.90;;;;;;5031090;28;20201;-94
2022/10/19 10:33:18;;;;;;;143.67;100.30;;;10.30;99.90;;;;;;5034730;28;20224;-95
2022/10/19 10:36:11;;;;;;;146.07;99.67;;;10.20;99.90;;;;;;5036840;28;20205;-95
2022/10/19 10:38:45;;;;;;;146.03;101.97;;;10.20;99.90;;;;;;5036474;28;20197;-94
2022/10/19 10:41:19;;;;;;;146.70;97.60;;;10.10;99.90;;;;;;5035110;28;20203;-94
2022/10/19 10:43:56;;;;;;;146.03;97.47;;;10.10;99.90;;;;;;5018230;28;20251;-94
2022/10/19 10:46:51;;;;;;;140.63;98.90;;;10.20;99.90;;;;;;5020745;28;20213;-94
2022/10/19 10:49:25;;;;;;;145.87;97.37;;;10.10;99.90;;;;;;5036070;28;20197;-94
2022/10/19 10:51:58;;;;;;;146.77;100.17;;;10.10;99.90;;;;;;5026550;28;20236;-94
2022/10/19 10:54:31;;;;;;;149.97;99.40;;;10.10;99.90;;;;;;5010353;28;20497;-95
2022/10/19 10:57:20;;;;;;;143.87;96.20;;;10.10;99.90;;;;;;5016584;28;20216;-94
2022/10/19 10:59:58;;;;;;;133.27;92.17;;;10.10;99.90;;;;;;5016013;28;20296;-94
2022/10/19 11:02:52;;;;;;;146.20;96.27;;;10.00;99.90;;;;;;4985257;28;20273;-94
2022/10/19 11:05:27;;;;;;;145.93;97.67;;;10.00;99.90;;;;;;4996586;28;20203;-94
2022/10/19 11:08:05;;;;;;;157.83;99.10;;;10.00;99.90;;;;;;4998324;28;20228;-94
2022/10/19 11:10:42;;;;;;;157.00;103.33;;;9.90;99.90;;;;;;5014920;28;20256;-93
2022/10/19 11:13:18;;;;;;;154.27;102.30;;;9.90;99.90;;;;;;4996886;28;20273;-94
2022/10/19 11:15:55;;;;;;;155.60;103.77;;;9.90;99.90;;;;;;5014960;28;20209;-94
2022/10/19 11:18:33;;;;;;;157.07;105.20;;;10.00;99.90;;;;;;5015253;28;20201;-94
2022/10/19 11:21:09;;;;;;;157.10;109.83;;;10.00;99.90;;;;;;5014603;28;20228;-94
2022/10/19 11:23:55;;;;;;;175.63;116.10;;;10.00;99.90;;;;;;5018457;28;20308;-94
2022/10/19 11:26:36;;;;;;;178.63;116.67;;;10.00;99.90;;;;;;5010973;28;20208;-93
2022/10/19 11:29:20;;;;;;;177.90;117.03;;;10.00;99.90;;;;;;5014539;28;20205;-92
2022/10/19 11:31:54;;;;;;;180.57;119.00;;;10.00;99.90;;;;;;5014198;28;20210;-95
2022/10/19 11:34:48;;;;;;;181.43;120.50;;;10.00;99.90;;;;;;5015846;28;20292;-94
2022/10/19 11:37:26;;;;;;;183.90;120.50;;;10.00;99.90;;;;;;5018423;28;20220;-94
2022/10/19 11:40:13;;;;;;;183.70;121.10;;;10.00;99.90;;;;;;5021441;28;20194;-94
2022/10/19 11:42:58;;;;;;;183.37;119.87;;;10.00;99.90;;;;;;5033646;28;20206;-94
2022/10/19 11:45:49;;;;;;;188.73;120.70;;;10.00;99.90;;;;;;5014735;28;20284;-94
2022/10/19 11:48:39;;;;;;;183.77;120.13;;;9.90;99.90;;;;;;5023674;28;20252;-94
2022/10/19 11:51:22;;;;;;;185.33;122.53;;;9.90;99.90;;;;;;4999884;28;20252;-94
2022/10/19 11:54:02;;;;;;;183.20;121.07;;;9.90;99.90;;;;;;4998984;28;20214;-93
2022/10/19 11:56:40;;;;;;;181.23;120.70;;;9.90;99.90;;;;;;5014423;28;20217;-94
2022/10/19 11:59:41;;;;;;;182.83;118.47;;;9.90;99.90;;;;;;5012516;28;20202;-93
2022/10/19 12:02:31;;;;;;;184.00;122.50;;;9.90;99.90;;;;;;5016616;28;21093;-93
2022/10/19 12:05:06;;;;;;;175.60;120.77;;;9.90;99.90;;;;;;5004103;28;20278;-94
2022/10/19 12:10:41;;;;;;;180.97;119.77;;;9.90;99.90;;;;;;5113716;27;1212960;-92
2022/10/19 12:13:16;;;;;;;174.03;117.97;;;9.90;99.90;;;;;;5135143;27;20458;-91
2022/10/19 12:15:51;;;;;;;178.70;120.07;;;9.90;99.90;;;;;;5138361;27;20212;-92
2022/10/19 12:18:31;;;;;;;183.47;120.60;;;9.80;99.90;;;;;;5153356;27;20289;-92
2022/10/19 12:21:09;;;;;;;181.70;120.77;;;9.80;99.90;;;;;;5144426;27;20641;-91
2022/10/19 12:23:42;;;;;;;174.53;121.50;;;9.80;99.90;;;;;;5152366;27;20205;-92
2022/10/19 12:26:18;;;;;;;176.67;120.07;;;9.80;99.90;;;;;;5136499;27;20269;-91
2022/10/19 12:28:52;;;;;;;181.13;120.43;;;9.80;99.90;;;;;;5137110;27;20576;-92
2022/10/19 12:31:24;;;;;;;184.97;121.57;;;9.70;99.90;;;;;;5114017;28;20336;-92
2022/10/19 12:34:08;;;;;;;172.40;120.43;;;9.70;99.90;;;;;;5128068;27;20212;-92
2022/10/19 12:36:48;;;;;;;178.43;119.67;;;9.70;99.90;;;;;;5132186;28;20209;-93
2022/10/19 12:39:27;;;;;;;172.40;117.93;;;9.70;99.90;;;;;;5148975;27;20204;-93
2022/10/19 12:42:09;;;;;;;175.40;116.40;;;9.60;99.90;;;;;;5134237;27;20201;-93
2022/10/19 12:45:15;;;;;;;170.53;117.03;;;9.60;99.90;;;;;;5136940;27;20206;-92
2022/10/19 12:48:18;;;;;;;175.03;115.70;;;9.50;99.90;;;;;;5124056;27;20616;-92
2022/10/19 12:51:11;;;;;;;173.87;116.00;;;9.50;99.90;;;;;;5152907;27;20228;-92
2022/10/19 12:53:46;;;;;;;168.83;114.63;;;9.50;99.90;;;;;;5146605;27;20212;-92
2022/10/19 12:56:21;;;;;;;176.93;116.50;;;9.40;99.90;;;;;;5155616;27;20283;-92
2022/10/19 12:59:00;;;;;;;171.67;117.10;;;9.40;99.90;;;;;;5125575;27;20223;-92